Sandbeach, Pennsylvania
Current Conditions -  °F | °C
As of 9:56 PM on Saturday 20 Dec 2014 (Local Time) from KMDT Reporting Station
Broken Clouds Broken Clouds  
Wind Chill: 22°   Ceiling: 11000
Heat Index: 27°   Visibility: 10mi
Dew Point: 22°   Wind: 5mph
Humidity: 81%   Direction: 330°NNW
Pressure: 30.3"   Gusts: NA
Location:  40.2634°N, 76.626°W
Report Text: KMDT 210256Z 33004KT 10SM BKN110 M03/M06 A3030 RMK AO2 SLP264 T10281056 53004 $
Loading
Personal Weather Stations






























Interactive Weather Map New forecast layout! Learn more

10-Day Weather Forecast

Advertisements
Track Severe Weather on mobile